Time;durP1;ratioP1;P1;durP2;ratioP2;P2;SDS_P1;SDS_P2;PMS_P1;PMS_P2;Temp;Humidity;BMP_temperature;BMP_pressure;BME280_temperature;BME280_humidity;BME280_pressure;Samples;Min_cycle;Max_cycle;Signal;HPM_P1;HPM_P2
2021/04/23 00:00:52;;;;;;;13.97;5.77;;;5.50;99.90;;;;;;5054761;28;20178;-93
2021/04/23 00:03:32;;;;;;;13.63;5.40;;;5.50;99.90;;;;;;5054442;28;20207;-91
2021/04/23 00:06:15;;;;;;;10.30;5.40;;;5.40;99.90;;;;;;5054907;28;20664;-91
2021/04/23 00:08:49;;;;;;;14.13;6.07;;;5.50;99.90;;;;;;5054263;28;20197;-94
2021/04/23 00:11:17;;;;;;;9.93;5.27;;;5.50;99.90;;;;;;5054893;28;20177;-91
2021/04/23 00:13:43;;;;;;;12.80;5.50;;;5.50;99.90;;;;;;5055371;28;20169;-91
2021/04/23 00:16:10;;;;;;;11.73;5.60;;;5.50;99.90;;;;;;5055482;28;20306;-92
2021/04/23 00:18:37;;;;;;;13.40;6.13;;;5.50;99.90;;;;;;5055188;28;20190;-92
2021/04/23 00:21:03;;;;;;;9.20;5.67;;;5.40;99.90;;;;;;5054337;28;20173;-92
2021/04/23 00:23:29;;;;;;;12.60;5.80;;;5.40;99.90;;;;;;5054384;28;20672;-92
2021/04/23 00:25:55;;;;;;;13.67;6.40;;;5.40;99.90;;;;;;5054851;28;20173;-92
2021/04/23 00:28:21;;;;;;;16.40;5.97;;;5.40;99.90;;;;;;5054587;28;20197;-92
2021/04/23 00:30:50;;;;;;;13.40;6.00;;;5.40;99.90;;;;;;5055188;28;20169;-92
2021/04/23 00:33:17;;;;;;;12.97;5.37;;;5.40;99.90;;;;;;5054509;28;20198;-91
2021/04/23 00:35:45;;;;;;;15.57;5.90;;;5.40;99.90;;;;;;5054885;28;20164;-93
2021/04/23 00:38:29;;;;;;;16.33;6.10;;;5.40;99.90;;;;;;5056065;28;20559;-93
2021/04/23 00:41:01;;;;;;;11.70;6.27;;;5.30;99.90;;;;;;5054164;28;20261;-93
2021/04/23 00:43:30;;;;;;;15.00;5.90;;;5.30;99.90;;;;;;5054515;28;20166;-91
2021/04/23 00:45:56;;;;;;;12.87;5.77;;;5.30;99.90;;;;;;5053876;28;20166;-90
2021/04/23 00:48:23;;;;;;;12.77;6.23;;;5.40;99.90;;;;;;5053186;28;20197;-93
2021/04/23 00:50:53;;;;;;;19.83;6.07;;;5.40;99.90;;;;;;5053762;28;20273;-93
2021/04/23 00:53:28;;;;;;;12.47;5.43;;;5.40;99.90;;;;;;5054290;28;20220;-94
2021/04/23 00:55:56;;;;;;;14.13;5.93;;;5.40;99.90;;;;;;5053748;28;20264;-94
2021/04/23 00:58:25;;;;;;;12.73;5.73;;;5.40;99.90;;;;;;5054016;28;20236;-92
2021/04/23 01:00:59;;;;;;;15.13;6.00;;;5.40;99.90;;;;;;5053781;28;20619;-93
2021/04/23 01:03:27;;;;;;;17.13;6.53;;;5.30;99.90;;;;;;5053560;28;20181;-93
2021/04/23 01:05:55;;;;;;;11.80;5.93;;;5.30;99.90;;;;;;5054618;28;20276;-93
2021/04/23 01:08:25;;;;;;;15.73;6.10;;;5.30;99.90;;;;;;5053891;28;20197;-92
2021/04/23 01:10:58;;;;;;;10.80;5.47;;;5.40;99.90;;;;;;5055238;28;20173;-92
2021/04/23 01:13:31;;;;;;;14.60;6.07;;;5.40;99.90;;;;;;5057012;28;20205;-92
2021/04/23 01:16:13;;;;;;;11.90;6.07;;;5.40;99.90;;;;;;5054949;28;20170;-92
2021/04/23 01:18:40;;;;;;;12.50;5.27;;;5.40;99.90;;;;;;5055300;28;20173;-91
2021/04/23 01:21:19;;;;;;;15.73;6.07;;;5.50;99.90;;;;;;5053104;28;20213;-92
2021/04/23 01:23:47;;;;;;;12.83;6.67;;;5.50;99.90;;;;;;5053394;28;20170;-93
2021/04/23 01:26:15;;;;;;;11.53;5.80;;;5.50;99.90;;;;;;5053199;28;20184;-93
2021/04/23 01:28:42;;;;;;;12.23;5.17;;;5.70;99.90;;;;;;5053254;28;20259;-93
2021/04/23 01:31:10;;;;;;;13.33;5.47;;;5.70;99.90;;;;;;5054034;28;20182;-94
2021/04/23 01:33:40;;;;;;;13.33;5.53;;;5.60;99.90;;;;;;5054103;28;20173;-91
2021/04/23 01:36:07;;;;;;;11.63;5.70;;;5.60;99.90;;;;;;5056881;28;20505;-91
2021/04/23 01:38:36;;;;;;;16.23;5.77;;;5.70;99.90;;;;;;5057014;28;20209;-91
2021/04/23 01:41:03;;;;;;;16.37;5.73;;;5.70;99.90;;;;;;5057408;28;20269;-93
2021/04/23 01:43:31;;;;;;;14.80;5.93;;;5.80;99.90;;;;;;5057882;28;20178;-94
2021/04/23 01:45:57;;;;;;;14.87;6.07;;;5.80;99.90;;;;;;5057763;28;20185;-94
2021/04/23 01:48:23;;;;;;;16.00;6.07;;;5.80;99.90;;;;;;5056942;28;20205;-92
2021/04/23 01:50:49;;;;;;;16.27;5.90;;;5.80;99.90;;;;;;5057324;28;20229;-93
2021/04/23 01:53:15;;;;;;;18.53;6.60;;;5.80;99.90;;;;;;5056641;28;20234;-92
2021/04/23 01:55:43;;;;;;;14.37;6.17;;;5.80;99.90;;;;;;5057766;28;20178;-91
2021/04/23 01:58:09;;;;;;;11.93;5.83;;;5.80;99.90;;;;;;5058947;28;20224;-92
2021/04/23 02:00:38;;;;;;;17.27;6.40;;;5.90;99.90;;;;;;5058572;28;20182;-92
2021/04/23 02:03:07;;;;;;;10.50;5.40;;;5.80;99.90;;;;;;5058042;28;20225;-93
2021/04/23 02:05:37;;;;;;;12.40;5.80;;;5.80;99.90;;;;;;5059194;28;20208;-92
2021/04/23 02:08:05;;;;;;;17.50;6.10;;;5.80;99.90;;;;;;5058774;28;20206;-92
2021/04/23 02:10:41;;;;;;;15.70;5.63;;;5.90;99.90;;;;;;5057990;28;20201;-92
2021/04/23 02:13:07;;;;;;;15.67;5.57;;;5.90;99.90;;;;;;5057187;28;20522;-93
2021/04/23 02:15:33;;;;;;;14.80;5.67;;;6.00;99.90;;;;;;5057696;28;20193;-93
2021/04/23 02:18:01;;;;;;;12.57;5.77;;;6.00;99.90;;;;;;5058550;28;20182;-92
2021/04/23 02:20:32;;;;;;;12.60;5.73;;;5.90;99.90;;;;;;5059137;28;20185;-90
2021/04/23 02:22:59;;;;;;;10.80;5.50;;;5.90;99.90;;;;;;5058256;28;20202;-91
2021/04/23 02:25:30;;;;;;;14.60;5.97;;;5.90;99.90;;;;;;5058225;28;20181;-93
2021/04/23 02:27:57;;;;;;;13.77;5.47;;;5.90;99.90;;;;;;5057975;28;20182;-90
2021/04/23 02:30:35;;;;;;;13.73;5.53;;;5.90;99.90;;;;;;5057982;28;20178;-92
2021/04/23 02:33:03;;;;;;;12.10;5.27;;;5.90;99.90;;;;;;5057249;28;20201;-91
2021/04/23 02:35:29;;;;;;;14.67;5.23;;;5.90;99.90;;;;;;5057780;28;20174;-91
2021/04/23 02:37:55;;;;;;;13.20;5.33;;;5.90;99.90;;;;;;5057957;28;20178;-92
2021/04/23 02:40:25;;;;;;;13.60;4.90;;;5.90;99.90;;;;;;5057691;28;20176;-92
2021/04/23 02:42:54;;;;;;;11.47;5.23;;;5.90;99.90;;;;;;5058435;28;20248;-92
2021/04/23 02:45:25;;;;;;;11.70;5.53;;;6.00;99.90;;;;;;5040005;28;20186;-95
2021/04/23 02:47:51;;;;;;;10.60;5.70;;;6.00;99.90;;;;;;5037910;28;20167;-91
2021/04/23 02:50:20;;;;;;;14.00;5.90;;;5.90;99.90;;;;;;5038198;28;20194;-93
2021/04/23 02:52:47;;;;;;;12.07;5.73;;;6.00;99.90;;;;;;5051916;28;20194;-94
2021/04/23 02:55:15;;;;;;;13.33;5.20;;;6.00;99.90;;;;;;5057299;28;20171;-94
2021/04/23 02:57:41;;;;;;;14.00;4.87;;;6.00;99.90;;;;;;5057686;28;20170;-92
2021/04/23 03:00:13;;;;;;;9.53;4.43;;;6.00;99.90;;;;;;5057293;28;20184;-92
2021/04/23 03:02:39;;;;;;;15.40;5.27;;;6.00;99.90;;;;;;5056831;28;20303;-91
2021/04/23 03:05:05;;;;;;;11.23;5.10;;;6.00;99.90;;;;;;5056739;28;20629;-92
2021/04/23 03:07:31;;;;;;;11.47;4.90;;;6.10;99.90;;;;;;5057749;28;20173;-92
2021/04/23 03:09:57;;;;;;;8.93;4.80;;;6.00;99.90;;;;;;5055758;28;20220;-95
2021/04/23 03:12:23;;;;;;;12.10;5.23;;;6.10;99.90;;;;;;5056431;28;20245;-92
2021/04/23 03:14:49;;;;;;;10.07;4.77;;;6.10;99.90;;;;;;5055885;28;20174;-92
2021/04/23 03:17:15;;;;;;;11.50;4.60;;;6.10;99.90;;;;;;5055733;28;20622;-91
2021/04/23 03:19:41;;;;;;;8.10;4.70;;;6.10;99.90;;;;;;5056389;28;20600;-93
2021/04/23 03:22:07;;;;;;;12.60;5.33;;;6.00;99.90;;;;;;5056320;28;20426;-91
2021/04/23 03:24:34;;;;;;;9.23;5.47;;;6.10;99.90;;;;;;5055562;28;20181;-93
2021/04/23 03:26:59;;;;;;;16.47;5.50;;;6.10;99.90;;;;;;5055784;28;20205;-92
2021/04/23 03:29:26;;;;;;;13.13;4.87;;;6.20;99.90;;;;;;5056392;28;20595;-94
2021/04/23 03:31:51;;;;;;;9.80;4.70;;;6.20;99.90;;;;;;5056367;28;20202;-95
2021/04/23 03:34:17;;;;;;;8.77;5.10;;;6.10;99.90;;;;;;5055334;28;20170;-92
2021/04/23 03:36:43;;;;;;;13.93;5.20;;;6.20;99.90;;;;;;5055476;28;20618;-91
2021/04/23 03:39:11;;;;;;;9.50;5.07;;;6.10;99.90;;;;;;5055713;28;20169;-93
2021/04/23 03:41:39;;;;;;;13.03;5.70;;;6.20;99.90;;;;;;5055242;28;20205;-93
2021/04/23 03:44:06;;;;;;;11.03;5.23;;;6.10;99.90;;;;;;5056638;28;20219;-93
2021/04/23 03:46:32;;;;;;;10.23;4.87;;;6.10;99.90;;;;;;5056161;28;20173;-92
2021/04/23 03:48:58;;;;;;;9.80;4.40;;;6.10;99.90;;;;;;5056130;28;20201;-92
2021/04/23 03:51:27;;;;;;;9.33;4.73;;;6.00;99.90;;;;;;5056525;28;20233;-93
2021/04/23 03:53:53;;;;;;;14.20;4.70;;;6.00;99.90;;;;;;5056872;28;20257;-93
2021/04/23 03:56:19;;;;;;;13.73;5.27;;;6.00;99.90;;;;;;5054973;28;20170;-92
2021/04/23 03:58:46;;;;;;;12.53;5.23;;;6.10;99.90;;;;;;5056838;28;20170;-92
2021/04/23 04:01:16;;;;;;;11.37;5.17;;;6.00;99.90;;;;;;5056331;28;20172;-92
2021/04/23 04:03:44;;;;;;;10.47;4.80;;;6.00;99.90;;;;;;5055891;28;20174;-92
2021/04/23 04:06:10;;;;;;;9.70;5.40;;;6.00;99.90;;;;;;5055360;28;20170;-93
2021/04/23 04:08:35;;;;;;;11.83;5.03;;;6.10;99.90;;;;;;5056811;28;20250;-91
2021/04/23 04:11:04;;;;;;;9.97;4.97;;;6.10;99.90;;;;;;5055644;28;20641;-93
2021/04/23 04:13:31;;;;;;;17.10;5.97;;;6.10;99.90;;;;;;5055861;28;20170;-93
2021/04/23 04:15:57;;;;;;;12.83;5.27;;;6.10;99.90;;;;;;5056032;28;20221;-91
2021/04/23 04:18:24;;;;;;;12.33;5.30;;;6.10;99.90;;;;;;5055368;28;20170;-94
2021/04/23 04:20:51;;;;;;;14.80;5.97;;;6.10;99.90;;;;;;5055614;28;20174;-94
2021/04/23 04:23:19;;;;;;;17.67;6.20;;;6.20;99.90;;;;;;5055587;28;20208;-91
2021/04/23 04:25:51;;;;;;;13.37;5.37;;;6.20;99.90;;;;;;5055224;28;20170;-91
2021/04/23 04:28:17;;;;;;;13.97;5.83;;;6.10;99.90;;;;;;5055716;28;20730;-92
2021/04/23 04:30:45;;;;;;;20.17;6.33;;;6.10;99.90;;;;;;5055454;28;20166;-93
2021/04/23 04:33:12;;;;;;;11.80;5.80;;;6.10;99.90;;;;;;5055507;28;20223;-92
2021/04/23 04:35:40;;;;;;;15.70;5.97;;;6.10;99.90;;;;;;5055921;28;20166;-93
2021/04/23 04:38:08;;;;;;;14.90;5.77;;;6.10;99.90;;;;;;5055324;28;20699;-91
2021/04/23 04:40:35;;;;;;;17.43;5.77;;;6.10;99.90;;;;;;5055376;28;20197;-91
2021/04/23 04:43:02;;;;;;;13.37;5.73;;;6.00;99.90;;;;;;5054923;28;20700;-93
2021/04/23 04:45:29;;;;;;;12.30;5.80;;;6.00;99.90;;;;;;5054382;28;20620;-91
2021/04/23 04:47:55;;;;;;;15.67;6.03;;;6.00;99.90;;;;;;5056159;28;20170;-90
2021/04/23 04:50:27;;;;;;;11.97;5.60;;;6.00;99.90;;;;;;5055097;28;20285;-92
2021/04/23 04:52:55;;;;;;;17.70;6.60;;;6.00;99.90;;;;;;5054870;28;20284;-93
2021/04/23 04:55:27;;;;;;;12.20;5.57;;;6.10;99.90;;;;;;5055728;28;20174;-92
2021/04/23 04:57:54;;;;;;;13.27;5.87;;;6.00;99.90;;;;;;5054779;28;20208;-91
2021/04/23 05:00:21;;;;;;;13.97;6.50;;;6.10;99.90;;;;;;5054931;28;20212;-91
2021/04/23 05:02:47;;;;;;;18.07;6.23;;;6.10;99.90;;;;;;5055076;28;20202;-92
2021/04/23 05:05:14;;;;;;;18.77;6.73;;;6.20;99.90;;;;;;5054953;28;20208;-93
2021/04/23 05:07:40;;;;;;;12.47;6.23;;;6.10;99.90;;;;;;5053632;28;20197;-91
2021/04/23 05:10:07;;;;;;;10.70;6.43;;;6.10;99.90;;;;;;5054812;28;20618;-92
2021/04/23 05:12:35;;;;;;;13.77;5.93;;;6.10;99.90;;;;;;5054598;28;20240;-92
2021/04/23 05:15:04;;;;;;;15.80;6.03;;;6.10;99.90;;;;;;5055121;28;20170;-93
2021/04/23 05:17:30;;;;;;;15.93;6.10;;;6.20;99.90;;;;;;5055618;28;20170;-93
2021/04/23 05:19:56;;;;;;;16.07;6.20;;;6.20;99.90;;;;;;5055415;28;20236;-93
2021/04/23 05:22:22;;;;;;;13.80;6.30;;;6.10;99.90;;;;;;5054167;28;20590;-94
2021/04/23 05:24:48;;;;;;;16.80;6.67;;;6.20;99.90;;;;;;5054552;28;20264;-91
2021/04/23 05:27:14;;;;;;;17.63;6.63;;;6.20;99.90;;;;;;5054456;28;20221;-92
2021/04/23 05:29:40;;;;;;;10.93;6.27;;;6.30;99.90;;;;;;5054665;28;20197;-91
2021/04/23 05:32:06;;;;;;;15.83;6.57;;;6.30;99.90;;;;;;5053940;28;20204;-92
2021/04/23 05:34:32;;;;;;;16.73;6.40;;;6.30;99.90;;;;;;5054071;28;20267;-92
2021/04/23 05:36:58;;;;;;;13.23;6.30;;;6.30;99.90;;;;;;5054233;28;20216;-94
2021/04/23 05:39:24;;;;;;;18.00;6.50;;;6.30;99.90;;;;;;5054885;28;20174;-91
2021/04/23 05:41:51;;;;;;;13.30;6.53;;;6.30;99.90;;;;;;5038945;28;20214;-92
2021/04/23 05:44:16;;;;;;;14.63;6.07;;;6.40;99.90;;;;;;5035597;28;20182;-91
2021/04/23 05:46:45;;;;;;;13.33;5.80;;;6.40;99.90;;;;;;5035453;28;20227;-91
2021/04/23 05:49:11;;;;;;;16.03;6.43;;;6.40;99.90;;;;;;5041234;28;20238;-92
2021/04/23 05:51:38;;;;;;;13.53;5.60;;;6.50;99.90;;;;;;5052377;28;20266;-94
2021/04/23 05:54:04;;;;;;;15.77;6.00;;;6.60;99.90;;;;;;5053957;28;20228;-93
2021/04/23 05:56:31;;;;;;;13.07;5.30;;;6.60;99.90;;;;;;5054542;28;20576;-92
2021/04/23 05:58:58;;;;;;;15.00;5.90;;;6.70;99.90;;;;;;5049774;28;20264;-93
2021/04/23 06:01:24;;;;;;;13.17;6.10;;;6.80;99.90;;;;;;5042103;28;20202;-90
2021/04/23 06:04:08;;;;;;;12.77;6.03;;;6.80;99.90;;;;;;5034934;28;20293;-93
2021/04/23 06:06:42;;;;;;;16.80;5.37;;;6.70;99.90;;;;;;5035123;28;20619;-92
2021/04/23 06:09:08;;;;;;;17.53;6.17;;;6.80;99.90;;;;;;5034839;28;20737;-91
2021/04/23 06:11:41;;;;;;;14.73;5.93;;;7.00;99.90;;;;;;5034557;28;20198;-93
2021/04/23 06:14:23;;;;;;;16.60;5.83;;;7.10;99.90;;;;;;5035011;28;20261;-92
2021/04/23 06:16:59;;;;;;;12.67;6.00;;;7.30;99.90;;;;;;5034758;28;20186;-93
2021/04/23 06:19:26;;;;;;;16.27;6.10;;;7.40;99.90;;;;;;5045405;28;20653;-93
2021/04/23 06:21:53;;;;;;;12.70;5.53;;;7.40;99.90;;;;;;5055218;28;20738;-91
2021/04/23 06:24:18;;;;;;;13.57;5.63;;;7.40;99.90;;;;;;5037443;28;20189;-92
2021/04/23 06:27:02;;;;;;;14.30;5.27;;;7.30;99.90;;;;;;5037624;28;20576;-93
2021/04/23 06:29:28;;;;;;;13.60;5.20;;;7.30;99.90;;;;;;5037829;28;20198;-92
2021/04/23 06:31:56;;;;;;;13.53;5.93;;;7.30;99.90;;;;;;5037623;28;20225;-94
2021/04/23 06:34:23;;;;;;;13.83;6.27;;;7.40;99.90;;;;;;5036455;28;20175;-91
2021/04/23 06:36:50;;;;;;;15.00;5.90;;;7.20;99.90;;;;;;5036383;28;20642;-92
2021/04/23 06:39:18;;;;;;;17.17;5.43;;;7.20;99.90;;;;;;5037539;28;20194;-94
2021/04/23 06:41:45;;;;;;;12.67;5.63;;;7.20;99.90;;;;;;5037352;28;20202;-93
2021/04/23 06:44:12;;;;;;;12.70;5.40;;;7.10;99.90;;;;;;5037146;28;20189;-92
2021/04/23 06:46:40;;;;;;;18.80;6.97;;;7.10;99.90;;;;;;5038309;28;20195;-93
2021/04/23 06:49:05;;;;;;;13.07;5.00;;;7.10;99.90;;;;;;5038846;28;20207;-94
2021/04/23 06:51:32;;;;;;;17.90;4.93;;;7.10;99.90;;;;;;5037818;28;20241;-93
2021/04/23 06:53:58;;;;;;;12.90;5.20;;;7.10;99.90;;;;;;5037932;28;20171;-91
2021/04/23 06:56:24;;;;;;;10.73;4.90;;;7.20;99.90;;;;;;5037419;28;20290;-93
2021/04/23 06:58:50;;;;;;;11.87;5.10;;;7.30;99.90;;;;;;5038599;28;20185;-91
2021/04/23 07:01:21;;;;;;;12.73;4.80;;;7.20;99.90;;;;;;5038255;28;20204;-92
2021/04/23 07:03:54;;;;;;;11.10;4.17;;;7.30;99.90;;;;;;5038306;28;20174;-90
2021/04/23 07:06:20;;;;;;;15.43;4.40;;;7.30;99.90;;;;;;5037530;28;20170;-90
2021/04/23 07:08:46;;;;;;;12.77;4.70;;;7.30;99.90;;;;;;5038349;28;20202;-93
2021/04/23 07:11:11;;;;;;;13.37;4.03;;;7.30;99.90;;;;;;5039905;28;20175;-92
2021/04/23 07:13:38;;;;;;;7.90;4.40;;;7.30;99.90;;;;;;5045741;28;20213;-93
2021/04/23 07:16:04;;;;;;;11.03;4.10;;;7.30;99.90;;;;;;5038477;28;20185;-92
2021/04/23 07:18:31;;;;;;;11.30;4.60;;;7.30;99.90;;;;;;5055174;28;20542;-93
2021/04/23 07:21:02;;;;;;;12.23;4.73;;;7.30;99.90;;;;;;5057358;28;20189;-93
2021/04/23 07:23:28;;;;;;;14.03;4.40;;;7.40;99.90;;;;;;5057239;28;20178;-94
2021/04/23 07:25:54;;;;;;;11.63;4.03;;;7.50;99.90;;;;;;5056621;28;20606;-92
2021/04/23 07:28:19;;;;;;;10.87;4.37;;;7.50;99.90;;;;;;5046874;28;20650;-92
2021/04/23 07:30:47;;;;;;;13.57;4.27;;;7.50;99.90;;;;;;5035230;28;20167;-91
2021/04/23 07:33:13;;;;;;;9.70;4.07;;;7.50;99.90;;;;;;5036172;28;20352;-92
2021/04/23 07:35:41;;;;;;;15.10;4.60;;;7.50;99.90;;;;;;5042108;28;20205;-91
2021/04/23 07:38:20;;;;;;;15.77;4.50;;;7.70;99.90;;;;;;5056003;28;20181;-93
2021/04/23 07:41:00;;;;;;;17.73;4.73;;;7.80;99.90;;;;;;5055993;28;20181;-93
2021/04/23 07:43:26;;;;;;;10.10;4.27;;;7.80;99.90;;;;;;5056159;28;20177;-92
2021/04/23 07:45:54;;;;;;;15.17;4.53;;;7.90;99.90;;;;;;5056528;28;20228;-92
2021/04/23 07:48:23;;;;;;;12.37;3.90;;;7.90;99.90;;;;;;5056779;28;20209;-90
2021/04/23 07:51:03;;;;;;;9.70;4.20;;;8.00;99.90;;;;;;5056774;28;20264;-92
2021/04/23 07:53:54;;;;;;;17.33;4.27;;;8.20;99.90;;;;;;5057640;28;20633;-91
2021/04/23 07:56:44;;;;;;;9.80;4.63;;;8.30;99.90;;;;;;5055696;28;20205;-90
2021/04/23 08:02:40;;;;;;;12.20;4.23;;;8.20;99.90;;;;;;5057125;28;20319;-92
2021/04/23 08:05:12;;;;;;;11.17;4.23;;;8.30;99.90;;;;;;5061821;28;20193;-90
2021/04/23 08:07:45;;;;;;;7.53;3.83;;;8.20;99.20;;;;;;5055732;28;20191;-91
2021/04/23 08:10:14;;;;;;;10.87;3.53;;;8.20;99.20;;;;;;5056310;28;20214;-93
2021/04/23 08:12:48;;;;;;;11.73;3.73;;;8.20;98.30;;;;;;5060006;28;20201;-92
2021/04/23 08:15:17;;;;;;;17.23;4.63;;;8.40;98.60;;;;;;5056689;28;20177;-92
2021/04/23 08:17:45;;;;;;;13.23;4.17;;;8.30;98.70;;;;;;5056180;28;20178;-93
2021/04/23 08:20:14;;;;;;;15.30;4.47;;;8.40;99.10;;;;;;5057287;28;20208;-92
2021/04/23 08:22:41;;;;;;;14.73;4.13;;;8.40;99.40;;;;;;5055373;28;20612;-93
2021/04/23 08:25:08;;;;;;;12.17;4.77;;;8.50;99.20;;;;;;5055670;28;20217;-93
2021/04/23 08:27:35;;;;;;;10.60;4.30;;;8.80;99.20;;;;;;5055629;28;20195;-92
2021/04/23 08:30:24;;;;;;;12.77;4.23;;;9.00;98.70;;;;;;5055635;28;20201;-93
2021/04/23 08:32:51;;;;;;;13.10;3.73;;;9.10;98.40;;;;;;5055556;28;20206;-94
2021/04/23 08:35:22;;;;;;;10.07;3.80;;;9.00;97.60;;;;;;5055118;28;20208;-92
2021/04/23 08:37:49;;;;;;;10.43;3.80;;;8.70;97.90;;;;;;5055566;28;20173;-92
2021/04/23 08:40:18;;;;;;;14.27;4.20;;;8.50;98.10;;;;;;5055803;28;20196;-93
2021/04/23 08:43:02;;;;;;;11.20;4.03;;;8.60;98.60;;;;;;5055798;28;20795;-93
2021/04/23 08:45:32;;;;;;;11.10;3.20;;;8.80;98.30;;;;;;5055374;28;20214;-95
2021/04/23 08:48:06;;;;;;;9.57;3.70;;;9.00;97.90;;;;;;5055687;28;20582;-94
2021/04/23 08:50:34;;;;;;;13.07;4.37;;;9.30;97.10;;;;;;5054079;28;20224;-91
2021/04/23 08:53:11;;;;;;;13.97;3.90;;;9.40;97.10;;;;;;5055107;28;20198;-92
2021/04/23 08:55:37;;;;;;;11.37;3.87;;;9.70;97.80;;;;;;5055556;28;20196;-93
2021/04/23 08:58:04;;;;;;;15.37;4.23;;;9.80;96.50;;;;;;5056056;28;20181;-93
2021/04/23 09:00:55;;;;;;;7.70;3.20;;;9.90;96.10;;;;;;5055389;28;20269;-93
2021/04/23 09:03:24;;;;;;;11.60;3.77;;;9.60;96.50;;;;;;5055725;28;20197;-92
2021/04/23 09:06:30;;;;;;;11.63;3.87;;;9.80;97.10;;;;;;5055818;28;20178;-93
2021/04/23 09:09:14;;;;;;;10.20;2.73;;;10.20;96.60;;;;;;5053802;28;20717;-94
2021/04/23 09:12:20;;;;;;;10.37;3.27;;;10.20;94.50;;;;;;5055910;28;20217;-91
2021/04/23 09:14:47;;;;;;;12.37;3.07;;;10.00;94.30;;;;;;5054992;28;20227;-93
2021/04/23 09:17:21;;;;;;;12.53;3.57;;;9.70;94.90;;;;;;5055566;28;20185;-91
2021/04/23 09:19:50;;;;;;;12.53;3.40;;;9.80;95.40;;;;;;5054721;28;20182;-91
2021/04/23 09:22:27;;;;;;;10.67;3.07;;;10.00;95.40;;;;;;5056330;28;20202;-93
2021/04/23 09:25:06;;;;;;;12.93;2.80;;;10.00;94.40;;;;;;5056356;28;20578;-92
2021/04/23 09:27:42;;;;;;;7.03;2.97;;;9.90;93.20;;;;;;5055401;28;20200;-92
2021/04/23 09:30:12;;;;;;;11.67;3.20;;;9.70;92.70;;;;;;5059263;28;20208;-91
2021/04/23 09:32:42;;;;;;;9.53;2.97;;;9.80;94.10;;;;;;5054585;28;20228;-93
2021/04/23 09:35:15;;;;;;;10.57;3.43;;;10.10;94.70;;;;;;5056234;28;20174;-92
2021/04/23 09:37:45;;;;;;;12.57;3.60;;;10.30;94.40;;;;;;5056615;28;20170;-92
2021/04/23 09:40:21;;;;;;;12.27;4.03;;;10.60;93.60;;;;;;5056234;28;20651;-92
2021/04/23 09:42:55;;;;;;;11.60;2.83;;;10.60;93.10;;;;;;5055852;28;20197;-93
2021/04/23 09:45:26;;;;;;;9.17;3.13;;;10.70;92.90;;;;;;5055982;28;20179;-93
2021/04/23 09:47:53;;;;;;;9.57;2.93;;;10.50;93.00;;;;;;5056292;28;20216;-91
2021/04/23 09:50:20;;;;;;;11.20;2.97;;;10.40;92.60;;;;;;5055442;28;20202;-92
2021/04/23 09:52:55;;;;;;;12.10;3.77;;;10.50;93.10;;;;;;5056251;28;20228;-92
2021/04/23 09:55:30;;;;;;;11.27;3.33;;;10.80;92.60;;;;;;5057942;28;20177;-95
2021/04/23 09:58:02;;;;;;;14.17;3.33;;;11.00;91.70;;;;;;5058866;28;20173;-92
2021/04/23 10:00:31;;;;;;;7.97;2.87;;;11.00;91.40;;;;;;5059595;28;20178;-93
2021/04/23 10:02:59;;;;;;;7.93;2.70;;;10.90;91.10;;;;;;5059437;28;20221;-92
2021/04/23 10:05:33;;;;;;;8.23;2.67;;;10.60;91.60;;;;;;5058905;28;20638;-94
2021/04/23 10:08:01;;;;;;;9.17;3.10;;;10.40;92.00;;;;;;5060346;28;20185;-92
2021/04/23 10:10:27;;;;;;;12.63;3.63;;;10.70;91.90;;;;;;5059786;28;20241;-92
2021/04/23 10:12:57;;;;;;;8.70;2.40;;;11.00;91.00;;;;;;5060587;28;20212;-94
2021/04/23 10:15:31;;;;;;;10.67;2.97;;;11.20;89.20;;;;;;5059322;28;20180;-93
2021/04/23 10:18:04;;;;;;;13.73;3.50;;;11.40;91.50;;;;;;5057989;28;20178;-93
2021/04/23 10:20:42;;;;;;;9.33;3.07;;;11.40;90.60;;;;;;5058572;28;20236;-92
2021/04/23 10:23:14;;;;;;;9.37;2.57;;;11.20;91.30;;;;;;5057832;28;20208;-94
2021/04/23 10:25:41;;;;;;;11.27;2.80;;;11.10;90.50;;;;;;5057811;28;20177;-92
2021/04/23 10:28:09;;;;;;;10.17;2.90;;;11.00;91.60;;;;;;5058480;28;20174;-93
2021/04/23 10:30:42;;;;;;;10.53;2.70;;;11.20;89.20;;;;;;5059934;28;20170;-94
2021/04/23 10:33:12;;;;;;;11.73;2.50;;;11.40;91.10;;;;;;5059956;28;20220;-95
2021/04/23 10:35:39;;;;;;;13.67;3.60;;;11.80;90.60;;;;;;5058506;28;20234;-94
2021/04/23 10:38:16;;;;;;;12.13;3.27;;;12.10;88.40;;;;;;5059967;28;20174;-94
2021/04/23 10:40:44;;;;;;;11.43;3.43;;;11.80;89.80;;;;;;5059977;28;20169;-93
2021/04/23 10:43:16;;;;;;;11.60;3.27;;;11.70;90.50;;;;;;5060049;28;20193;-95
2021/04/23 10:45:49;;;;;;;10.57;3.43;;;11.60;91.40;;;;;;5060807;28;20170;-94
2021/04/23 10:48:15;;;;;;;10.77;3.00;;;11.80;87.30;;;;;;5058208;28;20177;-95
2021/04/23 10:50:48;;;;;;;12.13;3.20;;;11.80;90.90;;;;;;5058634;28;20214;-93
2021/04/23 10:53:41;;;;;;;12.60;3.20;;;12.00;90.30;;;;;;5058459;28;20198;-93
2021/04/23 10:56:22;;;;;;;8.43;2.53;;;12.20;85.60;;;;;;5059244;28;20287;-91
2021/04/23 10:58:49;;;;;;;7.90;2.77;;;12.20;85.00;;;;;;5058408;28;20185;-92
2021/04/23 11:01:15;;;;;;;10.73;3.30;;;12.40;88.50;;;;;;5059269;28;20197;-95
2021/04/23 11:03:57;;;;;;;9.70;3.07;;;12.50;87.20;;;;;;5059722;28;20178;-93
2021/04/23 11:06:22;;;;;;;7.00;2.93;;;12.50;89.20;;;;;;5059267;28;20182;-93
2021/04/23 11:09:03;;;;;;;9.30;2.77;;;12.60;82.10;;;;;;5058745;28;20217;-92
2021/04/23 11:11:31;;;;;;;12.17;3.07;;;12.40;81.20;;;;;;5059007;28;20201;-92
2021/04/23 11:14:19;;;;;;;9.63;2.63;;;12.40;82.00;;;;;;5059436;28;20181;-95
2021/04/23 11:16:46;;;;;;;7.13;2.83;;;12.50;85.10;;;;;;5057918;28;20174;-92
2021/04/23 11:19:33;;;;;;;8.27;3.03;;;12.60;82.20;;;;;;5058367;28;20200;-92
2021/04/23 11:22:05;;;;;;;13.48;3.20;;;12.70;83.20;;;;;;5057851;28;20209;-92
2021/04/23 11:24:31;;;;;;;15.47;2.87;;;12.80;82.80;;;;;;5058323;28;20174;-92
2021/04/23 11:27:05;;;;;;;8.93;3.00;;;12.90;81.30;;;;;;5057506;28;20181;-93
2021/04/23 11:30:03;;;;;;;9.93;2.80;;;12.70;80.50;;;;;;5058826;28;20206;-94
2021/04/23 11:32:32;;;;;;;10.03;3.00;;;12.60;79.30;;;;;;5058262;28;20270;-91
2021/04/23 11:34:59;;;;;;;13.63;3.20;;;12.60;79.30;;;;;;5058569;28;20170;-92
2021/04/23 11:37:52;;;;;;;11.00;3.40;;;12.70;82.30;;;;;;5058338;28;20684;-93
2021/04/23 11:40:25;;;;;;;11.50;3.30;;;12.70;81.40;;;;;;5058868;28;20201;-93
2021/04/23 11:42:56;;;;;;;10.38;2.80;;;12.80;82.90;;;;;;5057930;28;20216;-92
2021/04/23 11:45:26;;;;;;;10.25;2.95;;;13.00;79.30;;;;;;5057917;28;20177;-93
2021/04/23 11:47:53;;;;;;;12.17;3.33;;;12.70;76.50;;;;;;5057371;28;20265;-93
2021/04/23 11:50:26;;;;;;;10.05;2.83;;;12.70;81.00;;;;;;5057062;28;20206;-93
2021/04/23 11:52:57;;;;;;;10.02;3.75;;;13.00;81.70;;;;;;5057891;28;20299;-94
2021/04/23 11:55:27;;;;;;;9.32;3.35;;;13.20;77.60;;;;;;5057302;28;20249;-93
2021/04/23 11:58:11;;;;;;;14.67;3.80;;;13.10;79.40;;;;;;5057370;28;20166;-93
2021/04/23 12:00:41;;;;;;;9.65;3.47;;;13.20;79.90;;;;;;5058386;28;20633;-95
2021/04/23 12:03:19;;;;;;;8.00;3.20;;;13.30;80.00;;;;;;5057343;28;20201;-93
2021/04/23 12:05:54;;;;;;;9.43;2.88;;;13.50;81.40;;;;;;5056662;28;20174;-94
2021/04/23 12:08:23;;;;;;;8.10;2.67;;;13.50;76.70;;;;;;5056698;28;20546;-94
2021/04/23 12:10:51;;;;;;;10.38;2.67;;;13.30;76.60;;;;;;5057237;28;20174;-92
2021/04/23 12:13:19;;;;;;;8.20;2.85;;;13.40;77.10;;;;;;5056795;28;20194;-93
2021/04/23 12:15:47;;;;;;;8.95;3.33;;;13.50;75.70;;;;;;5057358;28;20173;-93
2021/04/23 12:18:15;;;;;;;10.07;3.00;;;13.50;77.30;;;;;;5056647;28;20170;-95
2021/04/23 12:20:44;;;;;;;9.38;2.72;;;13.50;72.70;;;;;;5057175;28;20166;-92
2021/04/23 12:23:13;;;;;;;8.20;2.90;;;13.10;74.30;;;;;;5057470;28;20198;-93
2021/04/23 12:25:55;;;;;;;13.10;3.33;;;13.10;74.90;;;;;;5058092;28;20170;-91
2021/04/23 12:28:47;;;;;;;11.93;2.83;;;13.30;76.50;;;;;;5057122;28;20182;-94
2021/04/23 12:31:28;;;;;;;7.05;2.63;;;13.50;74.80;;;;;;5056838;28;20181;-93
2021/04/23 12:34:00;;;;;;;8.30;2.88;;;13.70;75.00;;;;;;5057153;28;20170;-92
2021/04/23 12:36:34;;;;;;;6.85;2.90;;;13.90;74.50;;;;;;5057677;28;20632;-92
2021/04/23 12:39:12;;;;;;;12.77;2.97;;;14.10;75.20;;;;;;5057476;28;20177;-93
2021/04/23 12:41:49;;;;;;;9.02;2.80;;;14.10;75.20;;;;;;5056461;28;20193;-92
2021/04/23 12:44:24;;;;;;;13.20;3.03;;;14.20;75.50;;;;;;5056406;28;20183;-93
2021/04/23 12:46:55;;;;;;;9.35;2.83;;;14.00;72.10;;;;;;5055343;28;20177;-92
2021/04/23 12:49:34;;;;;;;8.85;3.03;;;13.70;73.20;;;;;;5056806;28;20269;-93
2021/04/23 12:52:02;;;;;;;12.40;2.38;;;13.30;74.80;;;;;;5056777;28;20713;-95
2021/04/23 12:54:38;;;;;;;10.77;2.92;;;13.20;78.40;;;;;;5058578;28;20350;-93
2021/04/23 12:57:08;;;;;;;11.65;3.17;;;13.30;76.20;;;;;;5057986;28;20197;-92
2021/04/23 12:59:45;;;;;;;11.45;2.85;;;13.40;74.50;;;;;;5056212;28;20174;-93
2021/04/23 13:02:34;;;;;;;10.23;2.80;;;13.40;75.10;;;;;;5057749;28;20204;-92
2021/04/23 13:05:08;;;;;;;8.95;3.00;;;13.40;73.90;;;;;;5057710;28;20260;-94